Time;durP1;ratioP1;P1;durP2;ratioP2;P2;SDS_P1;SDS_P2;PMS_P1;PMS_P2;Temp;Humidity;BMP_temperature;BMP_pressure;BME280_temperature;BME280_humidity;BME280_pressure;Samples;Min_cycle;Max_cycle;Signal;HPM_P1;HPM_P2
2024/01/06 00:01:34;;;;;;;17.58;9.02;;;1.40;99.90;;;;;;5121344;28;20531;-80
2024/01/06 00:04:01;;;;;;;16.08;8.77;;;1.40;99.90;;;;;;5122064;28;20035;-81
2024/01/06 00:06:28;;;;;;;17.90;8.95;;;1.40;99.90;;;;;;5111103;28;20519;-80
2024/01/06 00:08:54;;;;;;;14.95;9.30;;;1.40;99.90;;;;;;5110782;28;20507;-80
2024/01/06 00:11:22;;;;;;;15.25;8.80;;;1.90;99.90;;;;;;5129775;28;20035;-80
2024/01/06 00:13:49;;;;;;;15.57;8.90;;;2.40;99.90;;;;;;5142929;28;20032;-80
2024/01/06 00:16:20;;;;;;;17.45;9.00;;;1.40;99.90;;;;;;5115722;28;20038;-80
2024/01/06 00:18:47;;;;;;;17.95;9.40;;;1.40;99.90;;;;;;5123752;28;20492;-80
2024/01/06 00:21:14;;;;;;;14.55;8.88;;;1.40;99.90;;;;;;5127597;28;20083;-80
2024/01/06 00:23:41;;;;;;;14.73;8.60;;;1.40;99.90;;;;;;5139968;28;20059;-80
2024/01/06 00:26:11;;;;;;;17.45;9.57;;;1.40;99.90;;;;;;5109942;28;20047;-81
2024/01/06 00:28:39;;;;;;;17.58;9.10;;;1.30;99.90;;;;;;5126707;28;20040;-80
2024/01/06 00:31:06;;;;;;;15.15;8.20;;;1.30;99.90;;;;;;5133818;28;20114;-80
2024/01/06 00:33:32;;;;;;;15.25;8.98;;;2.30;99.90;;;;;;5132789;28;20111;-81
2024/01/06 00:35:59;;;;;;;17.52;9.48;;;1.30;99.90;;;;;;5124708;28;20115;-80
2024/01/06 00:38:26;;;;;;;15.65;8.38;;;1.30;99.90;;;;;;5114492;28;20122;-80
2024/01/06 00:40:53;;;;;;;17.60;9.05;;;2.40;99.90;;;;;;5114653;28;20040;-80
2024/01/06 00:43:19;;;;;;;15.38;9.13;;;1.30;99.90;;;;;;5121286;28;20055;-80
2024/01/06 00:45:46;;;;;;;13.82;8.15;;;2.30;99.90;;;;;;5129170;28;20048;-80
2024/01/06 00:48:13;;;;;;;16.80;9.27;;;1.30;99.90;;;;;;5134137;28;20080;-81
2024/01/06 00:50:39;;;;;;;15.80;9.13;;;1.90;99.90;;;;;;5114161;28;20045;-80
2024/01/06 00:53:06;;;;;;;14.85;8.70;;;1.30;99.90;;;;;;5111276;28;20465;-81
2024/01/06 00:55:32;;;;;;;16.23;8.48;;;1.30;99.90;;;;;;5122109;28;20036;-81
2024/01/06 00:58:00;;;;;;;12.73;7.63;;;1.30;99.90;;;;;;5109869;28;20040;-81
2024/01/06 01:00:27;;;;;;;15.27;8.88;;;2.00;99.90;;;;;;5109687;28;20032;-81
2024/01/06 01:02:53;;;;;;;16.17;8.65;;;1.30;99.90;;;;;;5112640;28;20385;-81
2024/01/06 01:05:20;;;;;;;14.18;7.70;;;2.50;99.90;;;;;;5116179;28;20381;-80
2024/01/06 01:07:47;;;;;;;12.95;7.80;;;2.20;99.90;;;;;;5127491;28;20118;-80
2024/01/06 01:10:13;;;;;;;16.67;8.93;;;1.20;99.90;;;;;;5109735;28;20032;-80
2024/01/06 01:12:40;;;;;;;14.65;8.25;;;1.20;99.90;;;;;;5109908;28;20116;-80
2024/01/06 01:15:07;;;;;;;14.18;8.48;;;1.20;99.90;;;;;;5126027;28;20039;-80
2024/01/06 01:17:34;;;;;;;15.05;8.60;;;1.20;99.90;;;;;;5123906;28;20042;-80
2024/01/06 01:20:00;;;;;;;15.00;8.57;;;2.20;99.90;;;;;;5128268;28;20501;-80
2024/01/06 01:22:27;;;;;;;17.73;8.60;;;1.20;99.90;;;;;;5114431;28;20048;-80
2024/01/06 01:24:54;;;;;;;15.38;8.90;;;1.20;99.90;;;;;;5132462;28;20119;-80
2024/01/06 01:27:20;;;;;;;17.70;8.60;;;1.20;99.90;;;;;;5121769;28;20040;-80
2024/01/06 01:29:48;;;;;;;12.82;7.32;;;1.70;99.90;;;;;;5112010;28;20043;-80
2024/01/06 01:32:14;;;;;;;14.25;7.28;;;1.40;99.90;;;;;;5117125;28;20416;-81
2024/01/06 01:34:41;;;;;;;14.45;8.35;;;1.30;99.90;;;;;;5123817;28;20032;-80
2024/01/06 01:37:08;;;;;;;14.32;8.05;;;1.30;99.90;;;;;;5130723;28;20028;-80
2024/01/06 01:39:34;;;;;;;15.75;9.07;;;1.20;99.90;;;;;;5133805;28;20083;-80
2024/01/06 01:42:01;;;;;;;15.55;8.88;;;1.80;99.90;;;;;;5146450;28;20047;-80
2024/01/06 01:44:27;;;;;;;13.85;8.15;;;2.00;99.90;;;;;;5120478;28;20047;-81
2024/01/06 01:46:54;;;;;;;14.45;8.70;;;1.30;99.90;;;;;;5114451;28;20089;-81
2024/01/06 01:49:21;;;;;;;17.27;7.35;;;1.20;99.90;;;;;;5127887;28;20042;-80
2024/01/06 01:51:49;;;;;;;14.57;8.48;;;1.20;99.90;;;;;;5129633;28;20044;-80
2024/01/06 01:54:16;;;;;;;17.08;8.98;;;1.20;99.90;;;;;;5119835;28;20442;-80
2024/01/06 01:56:42;;;;;;;14.75;8.43;;;1.40;99.90;;;;;;5125452;28;20035;-80
2024/01/06 01:59:13;;;;;;;17.88;8.27;;;2.20;99.90;;;;;;5119724;28;20126;-80
2024/01/06 02:01:40;;;;;;;15.80;8.00;;;1.20;99.90;;;;;;5130977;28;20043;-80
2024/01/06 02:04:08;;;;;;;15.32;8.27;;;1.20;99.90;;;;;;5117733;28;20534;-80
2024/01/06 02:06:35;;;;;;;16.77;8.13;;;1.10;99.90;;;;;;5112862;28;20054;-80
2024/01/06 02:09:02;;;;;;;15.63;8.48;;;1.10;99.90;;;;;;5123006;28;20122;-80
2024/01/06 02:11:28;;;;;;;15.82;7.90;;;1.10;99.90;;;;;;5133239;28;20036;-80
2024/01/06 02:13:55;;;;;;;16.80;8.20;;;1.80;99.90;;;;;;5124194;28;20433;-80
2024/01/06 02:16:22;;;;;;;16.40;8.02;;;1.10;99.90;;;;;;5117260;28;20036;-80
2024/01/06 02:18:49;;;;;;;13.82;7.72;;;0.90;99.90;;;;;;5120808;28;20039;-80
2024/01/06 02:21:17;;;;;;;14.57;7.88;;;1.70;99.90;;;;;;5117407;28;20040;-80
2024/01/06 02:23:43;;;;;;;12.77;6.95;;;1.00;99.90;;;;;;5129351;28;20040;-81
2024/01/06 02:26:11;;;;;;;13.32;7.65;;;1.70;99.90;;;;;;5120660;28;20043;-80
2024/01/06 02:28:38;;;;;;;13.82;7.53;;;1.30;99.90;;;;;;5127709;28;20040;-80
2024/01/06 02:31:04;;;;;;;13.05;6.18;;;1.80;99.90;;;;;;5128512;28;20061;-80
2024/01/06 02:33:31;;;;;;;14.48;7.65;;;1.00;99.90;;;;;;5128203;28;20036;-80
2024/01/06 02:35:58;;;;;;;14.65;7.18;;;1.00;99.90;;;;;;5112509;28;20036;-81
2024/01/06 02:38:24;;;;;;;13.32;7.15;;;0.90;99.90;;;;;;5115594;28;20089;-81
2024/01/06 02:40:51;;;;;;;12.73;6.50;;;0.90;99.90;;;;;;5122567;28;20040;-81
2024/01/06 02:43:17;;;;;;;13.05;7.00;;;1.00;99.90;;;;;;5142506;28;20068;-80
2024/01/06 02:45:46;;;;;;;12.68;7.18;;;2.00;99.90;;;;;;5120589;28;20056;-80
2024/01/06 02:48:15;;;;;;;11.45;6.45;;;0.90;99.90;;;;;;5122118;28;20502;-80
2024/01/06 02:50:41;;;;;;;11.55;6.65;;;0.90;99.90;;;;;;5122961;28;20036;-80
2024/01/06 02:53:09;;;;;;;11.10;6.60;;;0.90;99.90;;;;;;5115969;28;20694;-81
2024/01/06 02:55:36;;;;;;;12.85;6.88;;;1.20;99.90;;;;;;5119012;28;20032;-80
2024/01/06 02:58:03;;;;;;;13.50;6.78;;;0.90;99.90;;;;;;5124491;28;20043;-80
2024/01/06 03:00:29;;;;;;;12.38;6.97;;;0.90;99.90;;;;;;5124839;28;20042;-80
2024/01/06 03:02:56;;;;;;;14.15;7.38;;;0.90;99.90;;;;;;5121694;28;20507;-80
2024/01/06 03:05:23;;;;;;;17.85;7.55;;;0.90;99.90;;;;;;5122431;28;20051;-81
2024/01/06 03:07:49;;;;;;;13.15;7.38;;;0.90;99.90;;;;;;5115477;28;20045;-80
2024/01/06 03:10:16;;;;;;;14.88;7.20;;;0.90;99.90;;;;;;5111580;28;20453;-80
2024/01/06 03:12:42;;;;;;;11.73;6.90;;;0.90;99.90;;;;;;5115314;28;20031;-80
2024/01/06 03:15:10;;;;;;;12.70;7.20;;;0.90;99.90;;;;;;5148711;28;20046;-80
2024/01/06 03:17:37;;;;;;;12.13;7.28;;;1.30;99.90;;;;;;5131817;28;20062;-81
2024/01/06 03:20:04;;;;;;;12.65;6.47;;;0.80;99.90;;;;;;5132037;28;20500;-80
2024/01/06 03:22:31;;;;;;;13.10;6.60;;;0.80;99.90;;;;;;5125773;28;20399;-81
2024/01/06 03:24:57;;;;;;;11.75;5.85;;;0.90;99.90;;;;;;5131525;28;20040;-81
2024/01/06 03:27:24;;;;;;;12.18;6.60;;;0.80;99.90;;;;;;5120842;28;20045;-80
2024/01/06 03:29:51;;;;;;;12.52;6.13;;;0.80;99.90;;;;;;5130814;28;20482;-80
2024/01/06 03:32:17;;;;;;;12.23;6.80;;;0.80;99.90;;;;;;5115316;28;20062;-80
2024/01/06 03:34:44;;;;;;;13.77;6.65;;;1.50;99.90;;;;;;5128464;28;20031;-80
2024/01/06 03:37:10;;;;;;;11.85;6.68;;;0.80;99.90;;;;;;5122382;28;20069;-80
2024/01/06 03:39:37;;;;;;;11.35;6.43;;;0.80;99.90;;;;;;5125099;28;20372;-80
2024/01/06 03:42:04;;;;;;;13.70;6.55;;;1.40;99.90;;;;;;5132563;28;20044;-80
2024/01/06 03:44:33;;;;;;;12.30;6.38;;;0.80;99.90;;;;;;5113791;28;20046;-80
2024/01/06 03:47:00;;;;;;;11.93;6.00;;;1.20;99.90;;;;;;5111393;28;20067;-80
2024/01/06 03:49:27;;;;;;;11.63;5.75;;;1.20;99.90;;;;;;5127629;28;20040;-81
2024/01/06 03:51:54;;;;;;;11.63;6.38;;;1.40;99.90;;;;;;5137053;28;20040;-80
2024/01/06 03:54:20;;;;;;;15.57;6.70;;;0.70;99.90;;;;;;5118784;28;20461;-80
2024/01/06 03:56:47;;;;;;;9.65;5.78;;;0.70;99.90;;;;;;5116629;28;20051;-81
2024/01/06 03:59:13;;;;;;;12.32;6.57;;;0.70;99.90;;;;;;5131126;28;20121;-80
2024/01/06 04:01:40;;;;;;;11.18;6.05;;;1.80;99.90;;;;;;5122936;28;20089;-80
2024/01/06 04:04:07;;;;;;;11.27;6.05;;;0.70;99.90;;;;;;5118214;28;20035;-80
2024/01/06 04:06:33;;;;;;;11.70;6.60;;;1.50;99.90;;;;;;5119988;28;20059;-81
2024/01/06 04:09:01;;;;;;;11.48;6.10;;;1.50;99.90;;;;;;5110479;28;20503;-80
2024/01/06 04:11:28;;;;;;;11.68;6.28;;;0.70;99.90;;;;;;5130176;28;20053;-80
2024/01/06 04:13:54;;;;;;;13.45;6.22;;;0.70;99.90;;;;;;5128842;28;20035;-81
2024/01/06 04:16:21;;;;;;;12.98;6.55;;;0.70;99.90;;;;;;5120099;28;20039;-80
2024/01/06 04:18:48;;;;;;;13.05;6.80;;;1.60;99.90;;;;;;5123541;28;20039;-80
2024/01/06 04:21:14;;;;;;;10.75;5.90;;;0.60;99.90;;;;;;5133164;28;20404;-80
2024/01/06 04:23:41;;;;;;;12.48;6.63;;;0.60;99.90;;;;;;5127054;28;20445;-80
2024/01/06 04:26:08;;;;;;;11.65;6.63;;;1.30;99.90;;;;;;5117077;28;20036;-80
2024/01/06 04:28:34;;;;;;;11.70;5.93;;;1.30;99.90;;;;;;5121728;28;20059;-80
2024/01/06 04:31:01;;;;;;;11.25;6.25;;;0.60;99.90;;;;;;5127731;28;20492;-80
2024/01/06 04:33:28;;;;;;;12.02;5.63;;;0.60;99.90;;;;;;5110298;28;20125;-80
2024/01/06 04:35:54;;;;;;;13.70;6.47;;;0.50;99.90;;;;;;5121934;28;20043;-80
2024/01/06 04:38:21;;;;;;;11.98;6.35;;;1.30;99.90;;;;;;5116305;28;20036;-81
2024/01/06 04:40:48;;;;;;;13.48;6.10;;;0.60;99.90;;;;;;5119253;28;20039;-80
2024/01/06 04:43:14;;;;;;;10.95;6.10;;;0.50;99.90;;;;;;5129768;28;20032;-80
2024/01/06 04:45:41;;;;;;;12.18;6.22;;;0.60;99.90;;;;;;5110112;28;20169;-80
2024/01/06 04:48:07;;;;;;;11.60;6.28;;;1.80;99.90;;;;;;5110620;28;20044;-81
2024/01/06 04:50:34;;;;;;;11.00;6.15;;;1.60;99.90;;;;;;5120047;28;20396;-80
2024/01/06 04:53:01;;;;;;;12.00;6.07;;;0.90;99.90;;;;;;5124271;28;20036;-81
2024/01/06 04:55:28;;;;;;;11.68;6.45;;;0.50;99.90;;;;;;5117812;28;20396;-80
2024/01/06 04:57:55;;;;;;;11.00;6.45;;;0.60;99.90;;;;;;5116907;28;20493;-81
2024/01/06 05:00:21;;;;;;;10.75;6.10;;;0.50;99.90;;;;;;5122397;28;20085;-81
2024/01/06 05:02:48;;;;;;;11.68;6.72;;;0.60;99.90;;;;;;5120643;28;20621;-80
2024/01/06 05:05:15;;;;;;;11.77;6.70;;;1.40;99.90;;;;;;5117436;28;20139;-80
2024/01/06 05:07:41;;;;;;;13.98;7.22;;;0.60;99.90;;;;;;5116501;28;20047;-81
2024/01/06 05:10:08;;;;;;;11.50;6.68;;;0.60;99.90;;;;;;5133432;28;20036;-80
2024/01/06 05:12:35;;;;;;;11.77;6.32;;;0.60;99.90;;;;;;5115183;28;20027;-80
2024/01/06 05:15:02;;;;;;;14.63;7.05;;;1.00;99.90;;;;;;5113806;28;20396;-80
2024/01/06 05:17:29;;;;;;;12.48;6.28;;;0.60;99.90;;;;;;5117152;28;20043;-80
2024/01/06 05:19:55;;;;;;;12.77;6.53;;;0.60;99.90;;;;;;5127519;28;20043;-80
2024/01/06 05:22:22;;;;;;;11.93;6.80;;;0.50;99.90;;;;;;5139203;28;20036;-80
2024/01/06 05:24:52;;;;;;;13.00;6.05;;;1.70;99.90;;;;;;5125880;28;20093;-80
2024/01/06 05:27:20;;;;;;;10.60;6.25;;;0.60;99.90;;;;;;5125917;28;20040;-81
2024/01/06 05:29:46;;;;;;;11.82;6.20;;;1.50;99.90;;;;;;5142067;28;20071;-80
2024/01/06 05:32:13;;;;;;;12.10;6.40;;;0.60;99.90;;;;;;5122395;28;20063;-81
2024/01/06 05:34:39;;;;;;;12.63;6.75;;;0.60;99.90;;;;;;5124328;28;20032;-80
2024/01/06 05:37:06;;;;;;;11.88;6.07;;;0.60;99.90;;;;;;5135137;28;20472;-81
2024/01/06 05:39:33;;;;;;;11.95;6.38;;;1.20;99.90;;;;;;5113464;28;20048;-81
2024/01/06 05:41:59;;;;;;;9.25;5.70;;;0.60;99.90;;;;;;5130819;28;20075;-80
2024/01/06 05:44:26;;;;;;;10.20;5.72;;;0.60;99.90;;;;;;5112963;28;20067;-80
2024/01/06 05:46:53;;;;;;;10.55;6.13;;;0.60;99.90;;;;;;5124632;28;20048;-80
2024/01/06 05:49:19;;;;;;;11.40;5.63;;;0.60;99.90;;;;;;5113886;28;20044;-81
2024/01/06 05:51:46;;;;;;;8.93;5.28;;;0.60;99.90;;;;;;5127114;28;20039;-80
2024/01/06 05:54:13;;;;;;;11.05;5.90;;;0.50;99.90;;;;;;5128095;28;20035;-80
2024/01/06 05:56:40;;;;;;;10.82;6.13;;;1.60;99.90;;;;;;5127473;28;20074;-80
2024/01/06 05:59:07;;;;;;;11.13;5.53;;;0.80;99.90;;;;;;5128166;28;20035;-80
2024/01/06 06:01:33;;;;;;;11.50;6.30;;;0.50;99.90;;;;;;5117746;28;20043;-81
2024/01/06 06:04:00;;;;;;;11.70;6.28;;;0.60;99.90;;;;;;5120314;28;20390;-81
2024/01/06 06:06:27;;;;;;;9.93;5.70;;;0.60;99.90;;;;;;5121794;28;20048;-80
2024/01/06 06:08:53;;;;;;;9.75;5.35;;;0.50;99.90;;;;;;5138506;28;20050;-81
2024/01/06 06:11:20;;;;;;;10.50;5.80;;;1.60;99.90;;;;;;5127067;28;20039;-81
2024/01/06 06:13:47;;;;;;;9.35;5.20;;;1.80;99.90;;;;;;5120558;28;20031;-80
2024/01/06 06:16:13;;;;;;;12.18;6.20;;;0.60;99.90;;;;;;5118395;28;20042;-80
2024/01/06 06:18:40;;;;;;;9.35;5.35;;;0.50;99.90;;;;;;5119196;28;20040;-81
2024/01/06 06:21:07;;;;;;;11.38;6.15;;;0.50;99.90;;;;;;5124680;28;20039;-80
2024/01/06 06:23:34;;;;;;;12.57;5.88;;;0.60;99.90;;;;;;5120012;28;20048;-80
2024/01/06 06:26:08;;;;;;;9.80;5.25;;;1.70;99.90;;;;;;5119597;28;20032;-81
2024/01/06 06:28:35;;;;;;;9.93;5.70;;;0.60;99.90;;;;;;5121085;28;20044;-80
2024/01/06 06:31:02;;;;;;;10.00;5.75;;;0.90;99.90;;;;;;5117122;28;20395;-81
2024/01/06 06:33:29;;;;;;;9.85;5.78;;;0.60;99.90;;;;;;5133046;28;20036;-81
2024/01/06 06:35:56;;;;;;;11.48;5.97;;;0.50;99.90;;;;;;5114497;28;20488;-81
2024/01/06 06:38:22;;;;;;;10.68;5.65;;;0.60;99.90;;;;;;5116735;28;20040;-81
2024/01/06 06:40:49;;;;;;;11.48;5.45;;;0.60;99.90;;;;;;5117695;28;20431;-80
2024/01/06 06:43:16;;;;;;;10.63;6.40;;;1.00;99.90;;;;;;5117788;28;20032;-81
2024/01/06 06:45:45;;;;;;;11.15;5.90;;;1.70;99.90;;;;;;5119145;28;20044;-80
2024/01/06 06:48:12;;;;;;;9.65;5.47;;;0.60;99.90;;;;;;5134322;28;20445;-80
2024/01/06 06:50:40;;;;;;;11.20;5.80;;;0.60;99.90;;;;;;5120402;28;20730;-81
2024/01/06 06:53:08;;;;;;;10.65;5.45;;;0.60;99.90;;;;;;5120879;28;20118;-81
2024/01/06 06:55:37;;;;;;;10.75;5.65;;;0.60;99.90;;;;;;5139675;28;20034;-80
2024/01/06 06:58:05;;;;;;;12.15;6.07;;;0.60;99.90;;;;;;5117310;28;20042;-80
2024/01/06 07:00:32;;;;;;;10.88;5.90;;;0.60;99.90;;;;;;5118227;28;20035;-81
2024/01/06 07:02:59;;;;;;;11.43;5.63;;;0.60;99.90;;;;;;5121675;28;20120;-80
2024/01/06 07:05:26;;;;;;;10.10;5.53;;;1.50;99.90;;;;;;5117988;28;20054;-81
2024/01/06 07:07:53;;;;;;;11.80;5.63;;;0.60;99.90;;;;;;5117581;28;20052;-81
2024/01/06 07:10:19;;;;;;;10.55;5.50;;;1.20;99.90;;;;;;5114132;28;20040;-81
2024/01/06 07:12:46;;;;;;;11.50;5.25;;;0.60;99.90;;;;;;5119667;28;20488;-80
2024/01/06 07:15:13;;;;;;;10.07;5.63;;;0.60;99.90;;;;;;5115075;28;20036;-81
2024/01/06 07:17:40;;;;;;;10.57;5.88;;;1.80;99.90;;;;;;5131322;28;20032;-80
2024/01/06 07:20:09;;;;;;;10.10;5.93;;;1.60;99.90;;;;;;5118062;28;20086;-80
2024/01/06 07:22:36;;;;;;;11.45;5.97;;;0.60;99.90;;;;;;5112195;28;20051;-80
2024/01/06 07:25:03;;;;;;;9.55;5.22;;;1.10;99.90;;;;;;5119412;28;20035;-80
2024/01/06 07:27:30;;;;;;;11.38;5.88;;;0.70;99.90;;;;;;5127001;28;20039;-80
2024/01/06 07:29:56;;;;;;;9.73;5.68;;;0.70;99.90;;;;;;5113019;28;20047;-81
2024/01/06 07:32:24;;;;;;;9.43;5.32;;;0.60;99.90;;;;;;5128462;28;20484;-81
2024/01/06 07:34:51;;;;;;;10.77;5.65;;;1.70;99.90;;;;;;5119993;28;20036;-80
2024/01/06 07:37:18;;;;;;;10.82;5.75;;;0.70;99.90;;;;;;5120137;28;20557;-80
2024/01/06 07:39:44;;;;;;;11.30;6.25;;;0.70;99.90;;;;;;5143814;28;20492;-81
2024/01/06 07:42:11;;;;;;;11.15;6.18;;;0.70;99.90;;;;;;5131165;28;20039;-80
2024/01/06 07:44:38;;;;;;;12.55;5.97;;;0.60;99.90;;;;;;5120765;28;20048;-80
2024/01/06 07:47:05;;;;;;;11.40;6.00;;;0.70;99.90;;;;;;5132500;28;20055;-80
2024/01/06 07:49:32;;;;;;;11.55;6.15;;;0.70;99.90;;;;;;5110446;28;20122;-80
2024/01/06 07:51:59;;;;;;;10.23;6.00;;;0.70;99.90;;;;;;5129370;28;20536;-81
2024/01/06 07:54:26;;;;;;;12.32;6.75;;;1.60;99.90;;;;;;5112363;28;20036;-80
2024/01/06 07:56:53;;;;;;;11.18;6.18;;;0.70;99.90;;;;;;5123083;28;20075;-81
2024/01/06 07:59:20;;;;;;;11.63;6.43;;;0.70;99.90;;;;;;5118045;28;20086;-80
2024/01/06 08:01:46;;;;;;;10.82;6.30;;;0.70;99.90;;;;;;5111469;28;20508;-80
2024/01/06 08:04:13;;;;;;;12.02;6.65;;;0.70;99.90;;;;;;5111252;28;20119;-80
2024/01/06 08:06:40;;;;;;;11.05;6.60;;;0.70;99.90;;;;;;5119352;28;20113;-80
2024/01/06 08:09:06;;;;;;;12.35;7.10;;;1.40;99.90;;;;;;5112990;28;20071;-80
2024/01/06 08:11:34;;;;;;;9.93;6.10;;;1.50;99.90;;;;;;5141207;28;20070;-80
2024/01/06 08:14:01;;;;;;;11.27;6.45;;;0.70;99.90;;;;;;5119350;28;20462;-81
2024/01/06 08:16:28;;;;;;;12.60;6.45;;;1.10;99.90;;;;;;5121532;28;20039;-82
2024/01/06 08:18:54;;;;;;;12.38;5.85;;;1.00;99.90;;;;;;5110375;28;20036;-84
2024/01/06 08:21:21;;;;;;;11.75;6.78;;;0.60;99.90;;;;;;5112085;28;20040;-82
2024/01/06 08:23:47;;;;;;;12.52;6.75;;;0.60;99.90;;;;;;5116643;28;20055;-82
2024/01/06 08:26:14;;;;;;;12.73;6.82;;;0.60;99.90;;;;;;5122464;28;20047;-82
2024/01/06 08:28:41;;;;;;;11.80;7.20;;;0.60;99.90;;;;;;5128844;28;20059;-82
2024/01/06 08:31:07;;;;;;;13.77;7.47;;;0.60;99.90;;;;;;5119860;28;20373;-81
2024/01/06 08:33:34;;;;;;;12.82;7.07;;;0.60;99.90;;;;;;5117877;28;20043;-82
2024/01/06 08:36:01;;;;;;;13.70;7.35;;;1.30;99.90;;;;;;5118474;28;20043;-83
2024/01/06 08:38:27;;;;;;;13.02;7.22;;;0.60;99.90;;;;;;5115011;28;20040;-82
2024/01/06 08:40:54;;;;;;;12.32;7.28;;;1.70;99.90;;;;;;5130355;28;20040;-81
2024/01/06 08:43:20;;;;;;;14.90;7.80;;;0.60;99.90;;;;;;5113719;28;20396;-83
2024/01/06 08:45:47;;;;;;;14.50;7.63;;;0.60;99.90;;;;;;5121304;28;20399;-82
2024/01/06 08:48:15;;;;;;;14.77;7.78;;;0.60;99.90;;;;;;5114360;28;20036;-81
2024/01/06 08:50:41;;;;;;;13.10;7.60;;;0.60;99.90;;;;;;5110826;28;20028;-82
2024/01/06 08:53:08;;;;;;;14.00;7.55;;;0.90;99.90;;;;;;5118303;28;20377;-82
2024/01/06 08:55:35;;;;;;;13.50;7.95;;;0.50;99.90;;;;;;5133852;28;20036;-82
2024/01/06 08:58:01;;;;;;;14.52;7.97;;;0.50;99.90;;;;;;5131687;28;20107;-82
2024/01/06 09:00:28;;;;;;;15.00;7.80;;;0.50;99.90;;;;;;5120338;28;20097;-82
2024/01/06 09:02:54;;;;;;;14.75;7.30;;;0.50;99.90;;;;;;5114906;28;20054;-81
2024/01/06 09:05:21;;;;;;;15.02;7.63;;;0.50;99.90;;;;;;5126232;28;20047;-81
2024/01/06 09:07:50;;;;;;;13.60;6.88;;;1.00;99.90;;;;;;5134718;28;20492;-81
2024/01/06 09:10:17;;;;;;;14.30;7.25;;;0.50;99.90;;;;;;5117344;28;20032;-81
2024/01/06 09:12:44;;;;;;;14.85;7.75;;;0.50;99.90;;;;;;5122499;28;20032;-81
2024/01/06 09:15:11;;;;;;;14.85;7.32;;;1.30;99.90;;;;;;5117034;28;20032;-81
2024/01/06 09:17:37;;;;;;;15.75;8.07;;;0.90;99.90;;;;;;5125847;28;20452;-81
2024/01/06 09:20:04;;;;;;;16.98;8.52;;;0.50;99.90;;;;;;5118725;28;20135;-81
2024/01/06 09:22:32;;;;;;;13.48;7.45;;;0.50;99.90;;;;;;5119930;28;20032;-81
2024/01/06 09:24:59;;;;;;;15.48;7.97;;;0.50;99.90;;;;;;5117413;28;20537;-81
2024/01/06 09:27:25;;;;;;;17.67;8.30;;;0.50;99.90;;;;;;5109370;28;20040;-81
2024/01/06 09:29:52;;;;;;;15.50;8.70;;;0.60;99.90;;;;;;5124046;28;20043;-81
2024/01/06 09:32:18;;;;;;;13.50;7.80;;;0.60;99.90;;;;;;5140698;28;20048;-81
2024/01/06 09:34:45;;;;;;;15.30;8.52;;;0.60;99.90;;;;;;5116971;28;20032;-82
2024/01/06 09:37:12;;;;;;;15.50;8.23;;;0.60;99.90;;;;;;5139475;28;20033;-81
2024/01/06 09:39:39;;;;;;;17.13;8.45;;;1.70;99.90;;;;;;5115372;28;20079;-81
2024/01/06 09:42:06;;;;;;;18.23;8.07;;;0.60;99.90;;;;;;5111554;28;20118;-81
2024/01/06 09:44:33;;;;;;;18.88;8.88;;;0.60;99.90;;;;;;5116127;28;20123;-81
2024/01/06 09:47:01;;;;;;;16.23;8.45;;;1.70;99.90;;;;;;5117576;28;20549;-82
2024/01/06 09:49:30;;;;;;;17.15;8.32;;;0.50;99.90;;;;;;5122873;28;20050;-82
2024/01/06 09:51:59;;;;;;;16.27;8.27;;;0.60;99.90;;;;;;5138468;28;20081;-82
2024/01/06 09:54:33;;;;;;;16.73;8.52;;;0.60;99.90;;;;;;5111969;28;20036;-81
2024/01/06 09:57:03;;;;;;;14.75;7.82;;;0.60;99.90;;;;;;5112726;28;20063;-81
2024/01/06 09:59:34;;;;;;;15.02;8.02;;;0.60;99.90;;;;;;5114546;28;20048;-81
2024/01/06 10:02:01;;;;;;;13.95;7.50;;;0.60;99.90;;;;;;5116894;28;20473;-81
2024/01/06 10:04:28;;;;;;;15.52;8.38;;;0.60;99.90;;;;;;5116386;28;20434;-81
2024/01/06 10:06:55;;;;;;;15.38;8.40;;;0.60;99.90;;;;;;5119707;28;20118;-81
2024/01/06 10:09:28;;;;;;;14.93;8.07;;;1.60;99.90;;;;;;5127648;28;20043;-81
2024/01/06 10:11:56;;;;;;;16.45;7.75;;;0.60;99.90;;;;;;5142040;28;20415;-81
2024/01/06 10:14:26;;;;;;;15.90;8.43;;;0.60;99.90;;;;;;5120157;28;20035;-81
2024/01/06 10:16:53;;;;;;;12.65;7.47;;;0.60;99.90;;;;;;5115182;28;20036;-82
2024/01/06 10:19:20;;;;;;;15.18;8.13;;;0.60;99.90;;;;;;5127007;28;20062;-81
2024/01/06 10:21:47;;;;;;;16.80;9.10;;;0.60;99.90;;;;;;5129946;28;20035;-81
2024/01/06 10:24:14;;;;;;;15.82;7.75;;;0.60;99.90;;;;;;5128009;28;20076;-81
2024/01/06 10:26:41;;;;;;;17.50;8.68;;;0.70;99.90;;;;;;5146042;28;20729;-81
2024/01/06 10:29:07;;;;;;;18.77;8.98;;;0.70;99.90;;;;;;5118836;28;20096;-81
2024/01/06 10:31:34;;;;;;;16.27;8.55;;;0.70;99.90;;;;;;5125501;28;20032;-81
2024/01/06 10:34:01;;;;;;;17.98;8.55;;;1.90;99.90;;;;;;5139633;28;20036;-81
2024/01/06 10:36:28;;;;;;;17.17;8.68;;;1.20;99.90;;;;;;5117882;28;20028;-81
2024/01/06 10:38:55;;;;;;;17.85;8.57;;;0.70;99.90;;;;;;5115177;28;20043;-81
2024/01/06 10:41:23;;;;;;;15.23;8.70;;;0.80;99.90;;;;;;5116339;28;20028;-81
2024/01/06 10:43:51;;;;;;;18.02;9.27;;;1.50;99.90;;;;;;5119980;28;20589;-82
2024/01/06 10:46:24;;;;;;;15.02;7.95;;;0.90;99.90;;;;;;5130489;28;20089;-82
2024/01/06 10:48:52;;;;;;;20.73;9.35;;;0.80;99.90;;;;;;5125433;28;20042;-81
2024/01/06 10:51:20;;;;;;;14.48;8.05;;;0.80;99.90;;;;;;5131379;28;20072;-82
2024/01/06 10:53:48;;;;;;;19.05;8.75;;;0.80;99.90;;;;;;5117557;28;20430;-82
2024/01/06 10:56:16;;;;;;;18.98;9.25;;;1.90;99.90;;;;;;5119076;28;20092;-81
2024/01/06 10:58:48;;;;;;;16.25;8.65;;;0.80;99.90;;;;;;5118479;28;20040;-80
2024/01/06 11:01:19;;;;;;;18.40;9.32;;;0.80;99.90;;;;;;5122755;28;20588;-81
2024/01/06 11:03:47;;;;;;;16.80;8.93;;;0.80;99.90;;;;;;5139246;28;20036;-81
2024/01/06 11:06:14;;;;;;;17.42;9.50;;;0.80;99.90;;;;;;5122959;28;20138;-82
2024/01/06 11:08:54;;;;;;;15.85;8.95;;;0.80;99.90;;;;;;5112471;28;20139;-81
2024/01/06 11:11:23;;;;;;;17.60;8.63;;;1.20;99.90;;;;;;5124190;28;20035;-81
2024/01/06 11:13:50;;;;;;;17.40;9.27;;;0.80;99.90;;;;;;5137687;28;20039;-81
2024/01/06 11:16:36;;;;;;;17.02;8.95;;;0.90;99.90;;;;;;5118732;28;20558;-81
2024/01/06 11:19:23;;;;;;;16.90;8.90;;;0.90;99.90;;;;;;5122006;28;20035;-81
2024/01/06 11:21:50;;;;;;;15.77;8.48;;;1.90;99.90;;;;;;5123399;28;20127;-82
2024/01/06 11:24:20;;;;;;;16.35;8.85;;;2.00;99.90;;;;;;5144271;28;20131;-81
2024/01/06 11:26:51;;;;;;;17.10;8.80;;;0.90;99.90;;;;;;5118170;28;20381;-81
2024/01/06 11:29:21;;;;;;;17.45;8.73;;;0.90;99.90;;;;;;5130134;28;20040;-82
2024/01/06 11:32:16;;;;;;;17.45;8.77;;;2.00;99.90;;;;;;5116528;28;20518;-82
2024/01/06 11:34:42;;;;;;;16.58;9.05;;;0.80;99.90;;;;;;5123296;28;20392;-81
2024/01/06 11:37:09;;;;;;;15.30;9.07;;;1.90;99.90;;;;;;5115422;28;20043;-81
2024/01/06 11:39:40;;;;;;;15.52;8.55;;;0.80;99.90;;;;;;5120172;28;20435;-81
2024/01/06 11:42:11;;;;;;;15.98;9.10;;;0.80;99.90;;;;;;5127787;28;20527;-81
2024/01/06 11:44:39;;;;;;;18.10;9.10;;;1.00;99.90;;;;;;5147338;28;20089;-81
2024/01/06 11:47:07;;;;;;;15.13;8.27;;;1.80;99.90;;;;;;5120810;28;20050;-82
2024/01/06 11:49:33;;;;;;;16.25;8.43;;;1.50;99.90;;;;;;5117317;28;20032;-81
2024/01/06 11:52:00;;;;;;;17.13;9.10;;;0.80;99.90;;;;;;5117473;28;20031;-82
2024/01/06 11:54:27;;;;;;;14.45;8.48;;;2.00;99.90;;;;;;5115138;28;20488;-82
2024/01/06 11:56:55;;;;;;;15.85;8.27;;;1.50;99.90;;;;;;5123821;28;20793;-82
2024/01/06 11:59:22;;;;;;;15.30;7.72;;;1.90;99.90;;;;;;5133079;28;20545;-82
2024/01/06 12:01:49;;;;;;;15.75;8.73;;;0.80;99.90;;;;;;5116309;28;20028;-82
2024/01/06 12:04:16;;;;;;;17.63;9.27;;;0.80;99.90;;;;;;5110474;28;20036;-83
2024/01/06 12:06:43;;;;;;;15.73;8.48;;;0.80;99.90;;;;;;5133986;28;20082;-82
2024/01/06 12:09:14;;;;;;;12.90;7.50;;;0.90;99.90;;;;;;5123743;28;20086;-82
2024/01/06 12:11:44;;;;;;;14.55;8.30;;;0.80;99.90;;;;;;5121208;28;20035;-85
2024/01/06 12:14:11;;;;;;;14.07;7.22;;;0.70;99.90;;;;;;5117125;28;20118;-82
2024/01/06 12:16:38;;;;;;;14.48;7.75;;;0.80;99.90;;;;;;5119124;28;20063;-83
2024/01/06 12:19:04;;;;;;;15.48;7.95;;;1.50;99.90;;;;;;5119504;28;20400;-83
2024/01/06 12:21:33;;;;;;;14.70;7.88;;;1.70;99.90;;;;;;5120607;28;20515;-83
2024/01/06 12:24:20;;;;;;;14.88;7.35;;;0.70;99.90;;;;;;5119162;28;20039;-83
2024/01/06 12:26:47;;;;;;;14.55;8.52;;;0.70;99.90;;;;;;5114446;28;20032;-82
2024/01/06 12:29:14;;;;;;;17.15;9.00;;;1.10;99.90;;;;;;5121457;28;20040;-83
2024/01/06 12:31:41;;;;;;;15.73;8.57;;;1.00;99.90;;;;;;5115770;28;20043;-83
2024/01/06 12:34:08;;;;;;;14.88;8.32;;;0.80;99.90;;;;;;5125667;28;20047;-82
2024/01/06 12:36:38;;;;;;;14.88;7.82;;;0.70;99.90;;;;;;5110396;28;20484;-83
2024/01/06 12:39:09;;;;;;;14.93;8.35;;;0.80;99.90;;;;;;5125569;28;20110;-83
2024/01/06 12:41:37;;;;;;;15.90;8.13;;;1.20;99.90;;;;;;5120402;28;20036;-83
2024/01/06 12:44:04;;;;;;;14.73;8.52;;;0.80;99.90;;;;;;5124961;28;20093;-83
2024/01/06 12:46:31;;;;;;;16.50;8.50;;;0.80;99.90;;;;;;5119385;28;20043;-84
2024/01/06 12:48:57;;;;;;;15.98;8.82;;;0.80;99.90;;;;;;5116082;28;20040;-83